createdAt,value
2023-09-19T00:00:59.642Z,13.11
2023-09-19T00:01:59.709Z,13.22
2023-09-19T00:03:59.723Z,13.11
2023-09-19T00:04:59.678Z,12.78
2023-09-19T00:06:59.682Z,12.5
2023-09-19T00:08:59.660Z,12.61
2023-09-19T00:09:59.665Z,12.94
2023-09-19T00:10:59.677Z,12.94
2023-09-19T00:11:59.660Z,12.94
2023-09-19T00:12:59.693Z,12.78
2023-09-19T00:13:59.657Z,12.78
2023-09-19T00:14:59.667Z,12.94
2023-09-19T00:15:59.667Z,13.11
2023-09-19T00:16:59.735Z,12.94
2023-09-19T00:17:59.686Z,12.61
2023-09-19T00:18:59.675Z,13.22
2023-09-19T00:19:59.660Z,13.22
2023-09-19T00:20:59.680Z,13.11
2023-09-19T00:21:59.663Z,13.39
2023-09-19T00:22:59.697Z,12.94
2023-09-19T00:24:59.679Z,12.94
2023-09-19T00:25:59.677Z,12.78
2023-09-19T00:26:59.689Z,13.22
2023-09-19T00:27:59.670Z,13.11
2023-09-19T00:28:59.685Z,12.94
2023-09-19T00:29:59.692Z,12.78
2023-09-19T00:30:59.697Z,13.11
2023-09-19T00:31:59.710Z,13.22
2023-09-19T00:32:59.748Z,13.22
2023-09-19T00:33:59.683Z,13.39
2023-09-19T00:34:59.693Z,13.22
2023-09-19T00:35:59.732Z,13.11
2023-09-19T00:37:59.698Z,13.11
2023-09-19T00:38:59.725Z,13.11
2023-09-19T00:41:00.992Z,13.22
2023-09-19T00:41:59.682Z,13.11
2023-09-19T00:42:59.702Z,13.17
2023-09-19T00:43:59.690Z,13.39
2023-09-19T00:44:59.700Z,13.11
2023-09-19T00:45:59.729Z,13.39
2023-09-19T00:46:59.769Z,13.22
2023-09-19T00:47:59.800Z,13.67
2023-09-19T00:48:59.706Z,13.22
2023-09-19T00:50:59.699Z,13.11
2023-09-19T00:51:59.703Z,13.11
2023-09-19T00:52:59.697Z,13.39
2023-09-19T00:53:59.707Z,13.22
2023-09-19T00:54:59.737Z,12.72
2023-09-19T00:55:59.710Z,13.11
2023-09-19T00:56:59.710Z,13.39
2023-09-19T00:58:59.708Z,13.11
2023-09-19T00:59:59.716Z,12.61
2023-09-19T01:00:59.716Z,12.5
2023-09-19T01:01:59.772Z,12.5
2023-09-19T01:02:59.795Z,12.61
2023-09-19T01:04:59.756Z,12.94
2023-09-19T01:06:59.735Z,13.11
2023-09-19T01:07:59.714Z,13.11
2023-09-19T01:08:59.717Z,12.78
2023-09-19T01:09:59.713Z,13.11
2023-09-19T01:10:59.756Z,13.11
2023-09-19T01:12:59.738Z,12.61
2023-09-19T01:13:59.749Z,12.61
2023-09-19T01:14:59.732Z,12.78
2023-09-19T01:16:59.816Z,12.61
2023-09-19T01:18:59.740Z,13.11
2023-09-19T01:20:59.737Z,12.5
2023-09-19T01:21:59.727Z,12.61
2023-09-19T01:22:59.730Z,12.61
2023-09-19T01:24:59.739Z,12.78
2023-09-19T01:25:59.737Z,12.78
2023-09-19T01:26:59.852Z,12.61
2023-09-19T01:27:59.748Z,13.11
2023-09-19T01:28:59.738Z,12.33
2023-09-19T01:30:59.744Z,12.5
2023-09-19T01:31:59.847Z,12.33
2023-09-19T01:32:59.762Z,12.61
2023-09-19T01:33:59.742Z,12.72
2023-09-19T01:34:59.745Z,12.44
2023-09-19T01:36:59.760Z,12.78
2023-09-19T01:37:59.763Z,12.89
2023-09-19T01:39:59.758Z,12.61
2023-09-19T01:40:59.758Z,12.56
2023-09-19T01:41:59.761Z,12.94
2023-09-19T01:42:59.778Z,12.56
2023-09-19T01:44:59.776Z,12.44
2023-09-19T01:46:59.787Z,12.44
2023-09-19T01:47:59.806Z,12.56
2023-09-19T01:48:59.776Z,12.44
2023-09-19T01:49:59.766Z,12.44
2023-09-19T01:51:59.770Z,12.89
2023-09-19T01:52:59.767Z,12.28
2023-09-19T01:53:59.763Z,12.67
2023-09-19T01:55:59.769Z,12.5
2023-09-19T01:56:59.765Z,12.78
2023-09-19T01:57:59.794Z,12.56
2023-09-19T01:58:59.815Z,12.44
2023-09-19T01:59:59.774Z,12.72
2023-09-19T02:00:59.817Z,12.44
2023-09-19T02:01:59.819Z,12.5
2023-09-19T02:03:00.031Z,12.28
2023-09-19T02:03:59.799Z,12.33
2023-09-19T02:04:59.781Z,12.72
2023-09-19T02:05:59.780Z,12.17
2023-09-19T02:06:59.792Z,12.28
2023-09-19T02:07:59.791Z,12.11
2023-09-19T02:08:59.800Z,11.94
2023-09-19T02:10:59.801Z,12.33
2023-09-19T02:11:59.794Z,12.89
2023-09-19T02:12:59.796Z,12.5
2023-09-19T02:14:59.813Z,12.5
2023-09-19T02:16:59.852Z,12.33
2023-09-19T02:17:59.815Z,12.44
2023-09-19T02:18:59.791Z,12.67
2023-09-19T02:19:59.798Z,12.11
2023-09-19T02:20:59.791Z,12.56
2023-09-19T02:21:59.798Z,12.78
2023-09-19T02:23:59.803Z,12.56
2023-09-19T02:24:59.838Z,12.56
2023-09-19T02:25:59.790Z,13.06
2023-09-19T02:26:59.802Z,13.11
2023-09-19T02:27:59.811Z,12.5
2023-09-19T02:28:59.801Z,12.11
2023-09-19T02:30:59.836Z,13.06
2023-09-19T02:32:59.834Z,12.28
2023-09-19T02:33:59.848Z,12.89
2023-09-19T02:35:59.832Z,12.56
2023-09-19T02:36:59.817Z,13.06
2023-09-19T02:37:59.817Z,12.72
2023-09-19T02:39:59.823Z,12.72
2023-09-19T02:41:59.823Z,12.44
2023-09-19T02:42:59.807Z,12.44
2023-09-19T02:43:59.822Z,12.44
2023-09-19T02:44:59.812Z,12.67
2023-09-19T02:45:59.817Z,12.72
2023-09-19T02:46:59.892Z,12.56
2023-09-19T02:48:59.812Z,12.11
2023-09-19T02:49:59.819Z,12.17
2023-09-19T02:50:59.823Z,12.33
2023-09-19T02:51:59.810Z,12.33
2023-09-19T02:52:59.817Z,12.11
2023-09-19T02:53:59.828Z,11.94
2023-09-19T02:54:59.812Z,12.11
2023-09-19T02:55:59.818Z,12.11
2023-09-19T02:57:59.816Z,12.44
2023-09-19T02:58:59.834Z,12.56
2023-09-19T03:00:59.826Z,12.56
2023-09-19T03:01:59.975Z,12.56
2023-09-19T03:02:59.892Z,12.56
2023-09-19T03:03:59.816Z,12.56
2023-09-19T03:04:59.826Z,12.11
2023-09-19T03:05:59.841Z,12.28
2023-09-19T03:06:59.818Z,12.28
2023-09-19T03:07:59.828Z,12.28
2023-09-19T03:08:59.823Z,12.28
2023-09-19T03:09:59.825Z,12.72
2023-09-19T03:11:59.834Z,12.11
2023-09-19T03:13:59.834Z,12.28
2023-09-19T03:14:59.828Z,12.67
2023-09-19T03:15:59.848Z,12.11
2023-09-19T03:16:59.892Z,12.44
2023-09-19T03:17:59.873Z,12.11
2023-09-19T03:18:59.861Z,12.28
2023-09-19T03:19:59.821Z,12.11
2023-09-19T03:20:59.842Z,12.28
2023-09-19T03:22:59.834Z,12.44
2023-09-19T03:23:59.838Z,12.28
2023-09-19T03:24:59.838Z,12.72
2023-09-19T03:25:59.840Z,12.44
2023-09-19T03:26:59.834Z,12.44
2023-09-19T03:27:59.849Z,12.11
2023-09-19T03:28:59.848Z,12.44
2023-09-19T03:30:59.852Z,12.11
2023-09-19T03:31:59.876Z,12.44
2023-09-19T03:32:59.898Z,12.56
2023-09-19T03:33:59.862Z,12.44
2023-09-19T03:34:59.886Z,12.72
2023-09-19T03:35:59.830Z,12.56
2023-09-19T03:36:59.852Z,12.56
2023-09-19T03:37:59.836Z,12.28
2023-09-19T03:38:59.840Z,12.44
2023-09-19T03:39:59.834Z,12.28
2023-09-19T03:40:59.855Z,12.17
2023-09-19T03:42:59.854Z,12.56
2023-09-19T03:43:59.853Z,12.44
2023-09-19T03:45:59.901Z,12.11
2023-09-19T03:47:59.874Z,12.56
2023-09-19T03:48:59.862Z,12.28
2023-09-19T03:49:59.843Z,12.5
2023-09-19T03:50:59.867Z,12.56
2023-09-19T03:52:59.855Z,12.11
2023-09-19T03:54:59.841Z,12.56
2023-09-19T03:55:59.848Z,12.72
2023-09-19T03:57:59.842Z,12.72
2023-09-19T03:58:59.835Z,12.56
2023-09-19T03:59:59.871Z,12.56
2023-09-19T04:00:59.861Z,12.28
2023-09-19T04:01:59.830Z,12.11
2023-09-19T04:02:59.917Z,12.11
2023-09-19T04:03:59.880Z,12.56
2023-09-19T04:04:59.860Z,12.44
2023-09-19T04:06:59.897Z,12.56
2023-09-19T04:08:59.841Z,12.28
2023-09-19T04:10:59.865Z,12.72
2023-09-19T04:11:59.853Z,12.56
2023-09-19T04:12:59.845Z,12.28
2023-09-19T04:14:59.843Z,12.72
2023-09-19T04:15:59.842Z,12.44
2023-09-19T04:16:59.893Z,12.72
2023-09-19T04:17:59.886Z,12.72
2023-09-19T04:19:59.848Z,12.44
2023-09-19T04:20:59.846Z,12.56
2023-09-19T04:21:59.852Z,12.89
2023-09-19T04:22:59.875Z,12.44
2023-09-19T04:23:59.835Z,12.72
2023-09-19T04:24:59.854Z,12.56
2023-09-19T04:26:59.867Z,12.44
2023-09-19T04:27:59.853Z,12.89
2023-09-19T04:28:59.879Z,12.44
2023-09-19T04:30:59.868Z,12.72
2023-09-19T04:32:59.889Z,12.89
2023-09-19T04:33:59.862Z,12.56
2023-09-19T04:34:59.855Z,12.72
2023-09-19T04:36:05.322Z,12.56
2023-09-19T04:36:59.859Z,12.28
2023-09-19T04:37:59.872Z,12.72
2023-09-19T04:38:59.892Z,12.44
2023-09-19T04:39:59.857Z,12.5
2023-09-19T04:40:59.906Z,12.56
2023-09-19T04:42:59.867Z,12.56
2023-09-19T04:43:59.897Z,12.72
2023-09-19T04:44:59.872Z,12.72
2023-09-19T04:45:59.901Z,12.44
2023-09-19T04:46:59.864Z,12.56
2023-09-19T04:47:59.894Z,12.56
2023-09-19T04:48:59.893Z,12.11
2023-09-19T04:50:59.884Z,11.94
2023-09-19T04:52:59.910Z,12.28
2023-09-19T04:54:59.913Z,12.11
2023-09-19T04:56:59.879Z,12.56
2023-09-19T04:58:59.873Z,12.28
2023-09-19T04:59:59.884Z,12.44
2023-09-19T05:00:59.874Z,12.56
2023-09-19T05:03:00.040Z,12.28
2023-09-19T05:03:59.898Z,12.44
2023-09-19T05:04:59.921Z,12.11
2023-09-19T05:05:59.881Z,11.94
2023-09-19T05:06:59.874Z,12.11
2023-09-19T05:08:04.823Z,12.28
2023-09-19T05:09:59.882Z,11.94
2023-09-19T05:11:59.876Z,12.44
2023-09-19T05:12:59.876Z,12.11
2023-09-19T05:13:59.900Z,12.44
2023-09-19T05:14:59.867Z,12.28
2023-09-19T05:15:59.902Z,12.56
2023-09-19T05:16:59.948Z,12.72
2023-09-19T05:17:59.913Z,11.83
2023-09-19T05:18:59.872Z,12.44
2023-09-19T05:19:59.881Z,12.11
2023-09-19T05:21:59.874Z,12.56
2023-09-19T05:23:59.905Z,12.28
2023-09-19T05:25:59.882Z,12.56
2023-09-19T05:27:59.908Z,12.28
2023-09-19T05:29:59.899Z,12.56
2023-09-19T05:30:59.946Z,12.72
2023-09-19T05:31:59.917Z,12.44
2023-09-19T05:32:59.926Z,12.67
2023-09-19T05:33:59.877Z,12.44
2023-09-19T05:34:59.875Z,12.72
2023-09-19T05:35:59.895Z,12.44
2023-09-19T05:36:59.886Z,12.44
2023-09-19T05:38:59.886Z,12.89
2023-09-19T05:39:59.943Z,12.11
2023-09-19T05:40:59.938Z,12.33
2023-09-19T05:41:59.890Z,12.56
2023-09-19T05:42:59.880Z,12.11
2023-09-19T05:44:02.113Z,12.28
2023-09-19T05:45:59.926Z,12.72
2023-09-19T05:46:59.942Z,11.94
2023-09-19T05:47:59.935Z,12.44
2023-09-19T05:49:59.896Z,12.56
2023-09-19T05:50:59.891Z,11.83
2023-09-19T05:52:59.893Z,12.44
2023-09-19T05:53:59.890Z,12.28
2023-09-19T05:54:59.890Z,12.44
2023-09-19T05:55:59.947Z,12.56
2023-09-19T05:56:59.889Z,12.28
2023-09-19T05:58:00.141Z,12.28
2023-09-19T05:58:59.897Z,12.44
2023-09-19T05:59:59.893Z,12.56
2023-09-19T06:00:59.884Z,12.72
2023-09-19T06:01:59.950Z,12.72
2023-09-19T06:02:59.977Z,12.11
2023-09-19T06:04:59.907Z,12.56
2023-09-19T06:05:59.900Z,12.44
2023-09-19T06:06:59.891Z,12.72
2023-09-19T06:08:59.901Z,12.44
2023-09-19T06:09:59.904Z,12.72
2023-09-19T06:10:59.908Z,13.06
2023-09-19T06:11:59.914Z,13.06
2023-09-19T06:12:59.934Z,12.72
2023-09-19T06:13:59.892Z,12.72
2023-09-19T06:14:59.894Z,12.72
2023-09-19T06:15:59.997Z,12.28
2023-09-19T06:16:59.916Z,13.17
2023-09-19T06:17:59.912Z,13.06
2023-09-19T06:18:59.907Z,12.78
2023-09-19T06:19:59.911Z,12.72
2023-09-19T06:21:59.906Z,12.89
2023-09-19T06:22:59.917Z,12.89
2023-09-19T06:24:59.908Z,12.44
2023-09-19T06:25:59.936Z,13.17
2023-09-19T06:26:59.894Z,12.44
2023-09-19T06:27:59.927Z,13.06
2023-09-19T06:28:59.924Z,12.44
2023-09-19T06:29:59.900Z,12.56
2023-09-19T06:30:59.906Z,13.06
2023-09-19T06:32:00.021Z,12.72
2023-09-19T06:33:00.372Z,12.89
2023-09-19T06:34:59.961Z,13.17
2023-09-19T06:35:59.906Z,12.89
2023-09-19T06:36:59.909Z,13.33
2023-09-19T06:38:00.152Z,13.33
2023-09-19T06:39:59.903Z,13.33
2023-09-19T06:41:59.904Z,13.5
2023-09-19T06:42:59.908Z,13.78
2023-09-19T06:44:00.030Z,13.67
2023-09-19T06:44:59.914Z,13.33
2023-09-19T06:46:00.014Z,13.5
2023-09-19T06:47:00.007Z,13.5
2023-09-19T06:48:00.238Z,13.5
2023-09-19T06:48:59.901Z,13.67
2023-09-19T06:49:59.930Z,13.78
2023-09-19T06:51:59.913Z,13.5
2023-09-19T06:53:59.920Z,14.39
2023-09-19T06:54:59.915Z,13.94
2023-09-19T06:56:00.202Z,14.67
2023-09-19T06:57:59.912Z,13.94
2023-09-19T06:59:59.932Z,14.06
2023-09-19T07:00:59.902Z,14.06
2023-09-19T07:01:59.955Z,14.39
2023-09-19T07:03:59.947Z,14.56
2023-09-19T07:06:00.063Z,14.89
2023-09-19T07:06:59.910Z,14.56
2023-09-19T07:08:59.910Z,14.67
2023-09-19T07:09:59.917Z,15.17
2023-09-19T07:11:59.915Z,14.89
2023-09-19T07:12:59.932Z,14.89
2023-09-19T07:14:59.920Z,14.89
2023-09-19T07:15:59.945Z,14.89
2023-09-19T07:16:59.991Z,15
2023-09-19T07:18:59.922Z,14.89
2023-09-19T07:20:00.007Z,14.67
2023-09-19T07:21:59.918Z,15.17
2023-09-19T07:22:59.973Z,15
2023-09-19T07:23:59.922Z,15.22
2023-09-19T07:24:59.901Z,15.56
2023-09-19T07:25:59.965Z,15.22
2023-09-19T07:26:59.930Z,15.39
2023-09-19T07:27:59.914Z,15.39
2023-09-19T07:28:59.967Z,15.72
2023-09-19T07:30:59.908Z,15.22
2023-09-19T07:32:00.119Z,15.39
2023-09-19T07:32:59.929Z,15.39
2023-09-19T07:33:59.906Z,15.17
2023-09-19T07:34:59.941Z,15.22
2023-09-19T07:36:59.923Z,15.22
2023-09-19T07:39:09.599Z,15.39
2023-09-19T07:39:59.911Z,15.39
2023-09-19T07:40:59.955Z,15.28
2023-09-19T07:41:59.926Z,15.06
2023-09-19T07:43:00.052Z,15.22
2023-09-19T07:44:59.937Z,15.72
2023-09-19T07:46:59.953Z,16.06
2023-09-19T07:47:59.986Z,15.56
2023-09-19T07:48:59.931Z,15.89
2023-09-19T07:49:59.983Z,16
2023-09-19T07:51:59.928Z,15.56
2023-09-19T07:53:00.027Z,15.78
2023-09-19T07:53:59.920Z,15.61
2023-09-19T07:54:59.937Z,15.83
2023-09-19T07:57:00.089Z,15.44
2023-09-19T07:57:59.931Z,15.78
2023-09-19T07:59:59.954Z,15.44
2023-09-19T08:00:59.947Z,15.44
2023-09-19T08:01:59.980Z,15.61
2023-09-19T08:03:04.447Z,15.89
2023-09-19T08:04:00.089Z,16.06
2023-09-19T08:05:59.927Z,16.06
2023-09-19T08:06:59.957Z,15.78
2023-09-19T08:08:59.944Z,15.44
2023-09-19T08:10:59.966Z,16.22
2023-09-19T08:11:59.958Z,16.06
2023-09-19T08:12:59.949Z,16.22
2023-09-19T08:14:00.014Z,16.56
2023-09-19T08:14:59.939Z,16.56
2023-09-19T08:17:00.154Z,15.89
2023-09-19T08:18:00.048Z,16.06
2023-09-19T08:18:59.937Z,15.78
2023-09-19T08:19:59.988Z,15.44
2023-09-19T08:20:59.956Z,15.28
2023-09-19T08:21:59.950Z,16.22
2023-09-19T08:23:00.030Z,16.56
2023-09-19T08:23:59.948Z,16.22
2023-09-19T08:26:00.012Z,16.06
2023-09-19T08:26:59.949Z,16.56
2023-09-19T08:27:59.966Z,16.56
2023-09-19T08:29:59.946Z,16.56
2023-09-19T08:30:59.960Z,16.72
2023-09-19T08:32:00.029Z,16.56
2023-09-19T08:33:00.216Z,15.89
2023-09-19T08:33:59.961Z,16.06
2023-09-19T08:34:59.971Z,15.61
2023-09-19T08:35:59.986Z,15.78
2023-09-19T08:36:59.939Z,15.89
2023-09-19T08:37:59.981Z,16.56
2023-09-19T08:39:59.965Z,16.39
2023-09-19T08:40:59.968Z,17
2023-09-19T08:41:59.951Z,17
2023-09-19T08:42:59.977Z,17.17
2023-09-19T08:43:59.972Z,16.89
2023-09-19T08:44:59.953Z,16.39
2023-09-19T08:45:59.962Z,17.67
2023-09-19T08:47:59.985Z,17.94
2023-09-19T08:48:59.954Z,18.44
2023-09-19T08:50:59.949Z,17.67
2023-09-19T08:51:59.979Z,17.33
2023-09-19T08:53:00.037Z,17.33
2023-09-19T08:53:59.954Z,17.67
2023-09-19T08:54:59.960Z,17.17
2023-09-19T08:55:59.967Z,17.33
2023-09-19T08:56:59.962Z,17.67
2023-09-19T08:57:59.949Z,17.83
2023-09-19T08:59:00.040Z,18.44
2023-09-19T08:59:59.955Z,17.5
2023-09-19T09:00:59.973Z,17.5
2023-09-19T09:03:00.015Z,16.89
2023-09-19T09:05:00.010Z,18.61
2023-09-19T09:06:59.963Z,19.94
2023-09-19T09:08:00.037Z,20.83
2023-09-19T09:09:59.978Z,21.22
2023-09-19T09:11:00.014Z,20.56
2023-09-19T09:11:59.974Z,20.56
2023-09-19T09:14:00.001Z,20.83
2023-09-19T09:15:00.010Z,21.22
2023-09-19T09:17:00.039Z,21.39
2023-09-19T09:18:00.011Z,21.89
2023-09-19T09:20:00.092Z,21.39
2023-09-19T09:20:59.998Z,21.39
2023-09-19T09:21:59.989Z,21.22
2023-09-19T09:23:00.009Z,20.83
2023-09-19T09:24:00.006Z,19.78
2023-09-19T09:24:59.994Z,20.22
2023-09-19T09:26:00.078Z,20.33
2023-09-19T09:27:00.005Z,20.56
2023-09-19T09:29:00.011Z,20.11
2023-09-19T09:30:00.021Z,20.11
2023-09-19T09:31:00.036Z,20.11
2023-09-19T09:33:11.266Z,20.22
2023-09-19T09:34:00.024Z,20.56
2023-09-19T09:35:01.962Z,20.22
2023-09-19T09:36:00.013Z,20.33
2023-09-19T09:37:00.013Z,20.33
2023-09-19T09:38:00.010Z,20.56
2023-09-19T09:39:00.020Z,20.33
2023-09-19T09:40:00.066Z,20.33
2023-09-19T09:41:01.003Z,20.83
2023-09-19T09:42:00.017Z,20.72
2023-09-19T09:43:00.039Z,20.83
2023-09-19T09:44:00.054Z,20.83
2023-09-19T09:45:00.013Z,19.44
2023-09-19T09:46:00.060Z,18.78
2023-09-19T09:47:00.164Z,18.44
2023-09-19T09:48:00.056Z,17.94
2023-09-19T09:49:00.032Z,17.72
2023-09-19T09:51:00.037Z,17.67
2023-09-19T09:53:00.074Z,19.56
2023-09-19T09:55:00.051Z,19.78
2023-09-19T09:56:00.140Z,19.28
2023-09-19T09:58:00.028Z,19.44
2023-09-19T09:59:00.075Z,19.44
2023-09-19T10:00:00.169Z,19.56
2023-09-19T10:01:00.029Z,19.78
2023-09-19T10:02:00.099Z,19.56
2023-09-19T10:03:00.238Z,19.06
2023-09-19T10:04:00.110Z,19.44
2023-09-19T10:05:00.365Z,19.06
2023-09-19T10:07:00.028Z,18.72
2023-09-19T10:08:00.055Z,19.56
2023-09-19T10:09:00.027Z,18.89
2023-09-19T10:11:00.116Z,19.44
2023-09-19T10:12:00.081Z,18.94
2023-09-19T10:13:00.035Z,19.44
2023-09-19T10:15:00.042Z,20.22
2023-09-19T10:17:00.128Z,20.11
2023-09-19T10:18:00.154Z,20.56
2023-09-19T10:19:00.043Z,20.56
2023-09-19T10:20:00.106Z,20.39
2023-09-19T10:22:00.072Z,21.06
2023-09-19T10:23:00.130Z,21.06
2023-09-19T10:24:00.088Z,21.06
2023-09-19T10:25:03.064Z,21.22
2023-09-19T10:27:00.061Z,21.56
2023-09-19T10:28:00.094Z,21.06
2023-09-19T10:29:00.241Z,21.56
2023-09-19T10:30:00.079Z,22.06
2023-09-19T10:32:00.142Z,21.89
2023-09-19T10:33:00.188Z,22.06
2023-09-19T10:34:00.063Z,21.89
2023-09-19T10:35:00.102Z,21.89
2023-09-19T10:37:00.087Z,21.39
2023-09-19T10:38:00.094Z,22.39
2023-09-19T10:39:00.083Z,22.06
2023-09-19T10:40:00.131Z,22.22
2023-09-19T10:41:00.111Z,21.56
2023-09-19T10:42:00.113Z,21.06
2023-09-19T10:43:00.080Z,21.72
2023-09-19T10:44:00.122Z,21.72
2023-09-19T10:45:00.145Z,22.39
2023-09-19T10:46:00.123Z,22.94
2023-09-19T10:47:00.134Z,22.61
2023-09-19T10:48:00.131Z,21.72
2023-09-19T10:50:00.139Z,22.22
2023-09-19T10:51:00.087Z,21.56
2023-09-19T10:52:00.108Z,21.06
2023-09-19T10:53:00.100Z,21.22
2023-09-19T10:54:00.109Z,21.22
2023-09-19T10:55:00.211Z,20.83
2023-09-19T10:57:00.108Z,21.72
2023-09-19T10:58:00.105Z,20.56
2023-09-19T10:59:00.170Z,20.39
2023-09-19T11:00:00.159Z,20.11
2023-09-19T11:01:00.137Z,20.11
2023-09-19T11:02:00.329Z,20.22
2023-09-19T11:04:00.282Z,19.44
2023-09-19T11:05:00.185Z,19.94
2023-09-19T11:06:00.137Z,19.61
2023-09-19T11:07:00.111Z,19.33
2023-09-19T11:08:00.152Z,19.61
2023-09-19T11:09:00.106Z,19.61
2023-09-19T11:10:00.454Z,20.11
2023-09-19T11:11:00.130Z,20.22
2023-09-19T11:13:00.121Z,20.22
2023-09-19T11:14:00.195Z,19.83
2023-09-19T11:15:00.204Z,20.72
2023-09-19T11:16:00.380Z,20.72
2023-09-19T11:18:00.148Z,20.56
2023-09-19T11:19:00.126Z,20.56
2023-09-19T11:20:00.386Z,20.72
2023-09-19T11:21:00.119Z,20.83
2023-09-19T11:22:00.186Z,20.56
2023-09-19T11:23:00.308Z,20.72
2023-09-19T11:24:00.125Z,20.83
2023-09-19T11:25:00.156Z,20.83
2023-09-19T11:26:00.230Z,21.39
2023-09-19T11:27:00.136Z,21.22
2023-09-19T11:29:00.202Z,22.39
2023-09-19T11:30:00.196Z,22.22
2023-09-19T11:31:00.142Z,22.22
2023-09-19T11:32:00.249Z,22.06
2023-09-19T11:33:00.270Z,21.89
2023-09-19T11:34:00.167Z,22.39
2023-09-19T11:35:00.286Z,22.78
2023-09-19T11:36:00.146Z,22.94
2023-09-19T11:37:00.139Z,23.11
2023-09-19T11:38:00.194Z,22.94
2023-09-19T11:40:00.229Z,22.61
2023-09-19T11:41:00.199Z,22.61
2023-09-19T11:42:00.144Z,22.06
2023-09-19T11:43:00.157Z,22.61
2023-09-19T11:44:00.281Z,22.22
2023-09-19T11:45:00.168Z,21.89
2023-09-19T11:47:00.221Z,21.72
2023-09-19T11:48:00.282Z,22.06
2023-09-19T11:49:00.159Z,22.94
2023-09-19T11:50:00.339Z,22.22
2023-09-19T11:51:00.157Z,22.61
2023-09-19T11:52:00.166Z,22.78
2023-09-19T11:54:00.181Z,23.11
2023-09-19T11:55:00.203Z,22.61
2023-09-19T11:56:00.217Z,21.72
2023-09-19T11:58:00.153Z,22.06
2023-09-19T11:59:00.164Z,22.06
2023-09-19T12:00:00.235Z,22.39
2023-09-19T12:02:00.223Z,21.06
2023-09-19T12:03:00.240Z,21.39
2023-09-19T12:04:00.581Z,21.39
2023-09-19T12:06:00.260Z,20.56
2023-09-19T12:08:00.256Z,20.72
2023-09-19T12:10:00.177Z,21.39
2023-09-19T12:12:00.189Z,21.39
2023-09-19T12:13:00.189Z,21.22
2023-09-19T12:14:00.284Z,20.83
2023-09-19T12:15:00.663Z,21.06
2023-09-19T12:16:00.222Z,20.56
2023-09-19T12:17:00.222Z,20.83
2023-09-19T12:19:00.164Z,21.06
2023-09-19T12:20:00.398Z,21.72
2023-09-19T12:21:00.173Z,21.39
2023-09-19T12:22:00.175Z,21.22
2023-09-19T12:23:00.191Z,21.89
2023-09-19T12:24:00.168Z,21.56
2023-09-19T12:25:00.176Z,22.06
2023-09-19T12:27:00.335Z,21.22
2023-09-19T12:29:00.223Z,21.56
2023-09-19T12:30:02.839Z,22.06
2023-09-19T12:31:00.189Z,21.56
2023-09-19T12:32:00.249Z,21.39
2023-09-19T12:33:00.546Z,20.72
2023-09-19T12:35:00.222Z,20.83
2023-09-19T12:36:00.301Z,21.22
2023-09-19T12:37:00.327Z,21.56
2023-09-19T12:39:00.282Z,21.44
2023-09-19T12:40:00.224Z,20.78
2023-09-19T12:42:00.250Z,20.39
2023-09-19T12:43:00.186Z,20.78
2023-09-19T12:44:00.251Z,21.06
2023-09-19T12:45:00.184Z,21.72
2023-09-19T12:46:00.246Z,21.39
2023-09-19T12:47:00.415Z,21.72
2023-09-19T12:48:00.242Z,21.72
2023-09-19T12:49:00.237Z,21.22
2023-09-19T12:51:00.173Z,20.89
2023-09-19T12:52:00.287Z,21.06
2023-09-19T12:53:00.198Z,21.22
2023-09-19T12:54:00.181Z,21.06
2023-09-19T12:55:00.220Z,21.56
2023-09-19T12:56:00.277Z,21.39
2023-09-19T12:57:00.228Z,21.22
2023-09-19T12:58:00.172Z,21.22
2023-09-19T12:59:00.277Z,20.89
2023-09-19T13:00:00.207Z,21.22
2023-09-19T13:02:00.224Z,21.22
2023-09-19T13:03:00.251Z,21.06
2023-09-19T13:04:00.311Z,21.39
2023-09-19T13:06:00.180Z,21.22
2023-09-19T13:08:00.418Z,21.56
2023-09-19T13:09:00.175Z,21.94
2023-09-19T13:11:00.260Z,21.39
2023-09-19T13:12:00.170Z,21.72
2023-09-19T13:13:00.185Z,21.72
2023-09-19T13:15:00.172Z,21.56
2023-09-19T13:16:00.223Z,21.72
2023-09-19T13:18:00.255Z,21.72
2023-09-19T13:19:00.181Z,22.06
2023-09-19T13:20:00.278Z,21.39
2023-09-19T13:22:00.185Z,21.56
2023-09-19T13:23:00.182Z,21.94
2023-09-19T13:24:00.248Z,21.72
2023-09-19T13:28:00.174Z,21.94
2023-09-19T13:29:00.264Z,21.94
2023-09-19T13:30:00.197Z,21.39
2023-09-19T13:31:00.271Z,21.94
2023-09-19T13:32:00.207Z,23.11
2023-09-19T13:33:00.220Z,22.39
2023-09-19T13:35:00.202Z,22.39
2023-09-19T13:36:00.213Z,21.72
2023-09-19T13:37:00.183Z,22.22
2023-09-19T13:39:00.188Z,21.39
2023-09-19T13:40:00.222Z,21.06
2023-09-19T13:41:00.214Z,21.06
2023-09-19T13:42:00.199Z,21.22
2023-09-19T13:44:00.237Z,21.06
2023-09-19T13:45:00.227Z,21.22
2023-09-19T13:47:00.231Z,21.94
2023-09-19T13:48:00.384Z,21.56
2023-09-19T13:49:00.188Z,21.39
2023-09-19T13:50:00.297Z,21.39
2023-09-19T13:51:00.186Z,21.39
2023-09-19T13:53:00.237Z,21.72
2023-09-19T13:54:00.179Z,21.56
2023-09-19T13:55:00.184Z,21.72
2023-09-19T13:56:00.264Z,21.56
2023-09-19T13:57:00.179Z,21.72
2023-09-19T13:58:00.197Z,22.06
2023-09-19T13:59:00.253Z,22.22
2023-09-19T14:00:00.193Z,21.72
2023-09-19T14:01:00.216Z,21.94
2023-09-19T14:03:00.251Z,21.39
2023-09-19T14:04:00.257Z,21.56
2023-09-19T14:06:00.199Z,21.22
2023-09-19T14:07:00.184Z,21.94
2023-09-19T14:08:00.269Z,21.06
2023-09-19T14:09:00.177Z,21.22
2023-09-19T14:10:00.291Z,21.22
2023-09-19T14:11:00.233Z,21.39
2023-09-19T14:12:00.238Z,21.39
2023-09-19T14:13:00.187Z,21.72
2023-09-19T14:14:00.209Z,21.39
2023-09-19T14:15:00.200Z,21.06
2023-09-19T14:17:00.312Z,20.78
2023-09-19T14:18:00.352Z,20.56
2023-09-19T14:19:00.206Z,20.56
2023-09-19T14:21:00.186Z,20.78
2023-09-19T14:22:00.212Z,20.89
2023-09-19T14:23:00.246Z,20.78
2023-09-19T14:25:00.197Z,21.06
2023-09-19T14:26:00.264Z,21.39
2023-09-19T14:27:00.201Z,21.72
2023-09-19T14:28:00.226Z,21.72
2023-09-19T14:30:00.262Z,21.22
2023-09-19T14:31:00.194Z,21.06
2023-09-19T14:32:00.485Z,21.39
2023-09-19T14:33:00.218Z,21.22
2023-09-19T14:34:00.213Z,21.56
2023-09-19T14:36:02.143Z,21.72
2023-09-19T14:37:00.192Z,21.22
2023-09-19T14:38:00.242Z,21.72
2023-09-19T14:39:00.198Z,21.56
2023-09-19T14:41:00.213Z,21.94
2023-09-19T14:42:00.192Z,22.78
2023-09-19T14:43:00.195Z,22.94
2023-09-19T14:44:00.269Z,23.39
2023-09-19T14:45:00.185Z,23.72
2023-09-19T14:46:00.207Z,23.06
2023-09-19T14:47:00.220Z,22.67
2023-09-19T14:48:00.279Z,23.5
2023-09-19T14:49:00.203Z,24.17
2023-09-19T14:50:00.253Z,23.83
2023-09-19T14:51:00.223Z,22.83
2023-09-19T14:52:00.200Z,22.22
2023-09-19T14:53:00.228Z,22.06
2023-09-19T14:54:00.214Z,21.39
2023-09-19T14:55:00.213Z,20.89
2023-09-19T14:56:00.285Z,20.78
2023-09-19T14:58:00.195Z,21.22
2023-09-19T14:59:00.297Z,22.06
2023-09-19T15:00:00.277Z,21.94
2023-09-19T15:01:00.194Z,21.72
2023-09-19T15:02:00.395Z,21.72
2023-09-19T15:04:00.296Z,21.72
2023-09-19T15:05:00.390Z,21.22
2023-09-19T15:07:00.207Z,20.89
2023-09-19T15:09:00.200Z,20.28
2023-09-19T15:11:00.258Z,21.22
2023-09-19T15:12:00.214Z,21.22
2023-09-19T15:14:00.264Z,23.67
2023-09-19T15:15:00.252Z,24
2023-09-19T15:16:00.260Z,24.67
2023-09-19T15:17:00.274Z,23.67
2023-09-19T15:18:00.257Z,23.83
2023-09-19T15:19:00.199Z,23.83
2023-09-19T15:21:00.223Z,21.39
2023-09-19T15:22:00.192Z,20.39
2023-09-19T15:23:00.223Z,20.28
2023-09-19T15:24:00.198Z,21.06
2023-09-19T15:25:00.222Z,22.22
2023-09-19T15:26:00.339Z,22.78
2023-09-19T15:27:00.213Z,22.94
2023-09-19T15:28:00.199Z,21.56
2023-09-19T15:29:00.268Z,21.06
2023-09-19T15:31:00.248Z,22.22
2023-09-19T15:32:00.259Z,22.78
2023-09-19T15:34:00.201Z,25.22
2023-09-19T15:36:00.211Z,26.72
2023-09-19T15:38:00.272Z,26.33
2023-09-19T15:40:00.209Z,25.61
2023-09-19T15:41:00.226Z,24.89
2023-09-19T15:42:00.205Z,26.33
2023-09-19T15:43:00.203Z,25.06
2023-09-19T15:44:00.316Z,24.67
2023-09-19T15:45:00.215Z,24.17
2023-09-19T15:46:00.251Z,23.44
2023-09-19T15:47:00.244Z,24
2023-09-19T15:48:00.312Z,23.67
2023-09-19T15:50:00.335Z,23.83
2023-09-19T15:52:00.211Z,24.17
2023-09-19T15:54:00.213Z,24
2023-09-19T15:55:00.196Z,25.06
2023-09-19T15:56:00.253Z,22.94
2023-09-19T15:57:00.203Z,20.89
2023-09-19T15:58:00.205Z,20.28
2023-09-19T15:59:00.276Z,20
2023-09-19T16:01:00.202Z,22.06
2023-09-19T16:02:00.279Z,23.28